Plainfield Center, New York
Current Conditions -  °F | °C
As of 8:53 AM on Monday 24 Nov 2014 (Local Time) from KRME Reporting Station
Overcast Overcast  
Wind Chill: 52°   Ceiling: 7000
Heat Index: 52°   Visibility: 10mi
Dew Point: 50°   Wind: 8mph
Humidity: 93%   Direction: 130°SE
Pressure: 29.52"   Gusts: NA
Location:  42.8676°N, 75.1875°W
Report Text: KRME 241353Z 13007KT 10SM FEW028 OVC070 11/10 A2952 RMK AO2 SLP994 T01110100
Loading
Personal Weather Stations






























Interactive Weather Map New forecast layout! Learn more

10-Day Weather Forecast

Advertisements
Track Severe Weather on mobile